sensor_id;sensor_type;location;lat;lon;timestamp;P1;durP1;ratioP1;P2;durP2;ratioP2
67156;SDS011;54086;50.126;8.710;2024-01-27T00:01:57;10.83;;;2.20;;
67156;SDS011;54086;50.126;8.710;2024-01-27T00:04:22;10.05;;;2.03;;
67156;SDS011;54086;50.126;8.710;2024-01-27T00:06:47;12.17;;;2.70;;
67156;SDS011;54086;50.126;8.710;2024-01-27T00:09:13;10.17;;;2.10;;
67156;SDS011;54086;50.126;8.710;2024-01-27T00:11:38;10.10;;;3.00;;
67156;SDS011;54086;50.126;8.710;2024-01-27T00:14:04;13.32;;;2.50;;
67156;SDS011;54086;50.126;8.710;2024-01-27T00:16:29;13.97;;;2.57;;
67156;SDS011;54086;50.126;8.710;2024-01-27T00:18:55;11.80;;;2.63;;
67156;SDS011;54086;50.126;8.710;2024-01-27T00:21:20;12.13;;;2.50;;
67156;SDS011;54086;50.126;8.710;2024-01-27T00:23:45;9.03;;;2.30;;
67156;SDS011;54086;50.126;8.710;2024-01-27T00:26:11;8.25;;;1.70;;
67156;SDS011;54086;50.126;8.710;2024-01-27T00:28:37;10.60;;;2.60;;
67156;SDS011;54086;50.126;8.710;2024-01-27T00:31:03;9.95;;;1.98;;
67156;SDS011;54086;50.126;8.710;2024-01-27T00:33:28;11.53;;;1.93;;
67156;SDS011;54086;50.126;8.710;2024-01-27T00:35:53;8.40;;;2.23;;
67156;SDS011;54086;50.126;8.710;2024-01-27T00:38:19;11.27;;;2.87;;
67156;SDS011;54086;50.126;8.710;2024-01-27T00:40:44;11.02;;;2.53;;
67156;SDS011;54086;50.126;8.710;2024-01-27T00:43:10;8.83;;;2.07;;
67156;SDS011;54086;50.126;8.710;2024-01-27T00:45:35;9.83;;;2.50;;
67156;SDS011;54086;50.126;8.710;2024-01-27T00:48:00;8.47;;;2.40;;
67156;SDS011;54086;50.126;8.710;2024-01-27T00:50:26;11.75;;;2.30;;
67156;SDS011;54086;50.126;8.710;2024-01-27T00:52:51;9.97;;;2.50;;
67156;SDS011;54086;50.126;8.710;2024-01-27T00:55:17;10.73;;;2.50;;
67156;SDS011;54086;50.126;8.710;2024-01-27T00:57:42;10.77;;;1.87;;
67156;SDS011;54086;50.126;8.710;2024-01-27T01:00:08;12.25;;;2.15;;
67156;SDS011;54086;50.126;8.710;2024-01-27T01:02:36;10.25;;;2.20;;
67156;SDS011;54086;50.126;8.710;2024-01-27T01:05:02;9.57;;;2.17;;
67156;SDS011;54086;50.126;8.710;2024-01-27T01:07:31;10.48;;;2.00;;
67156;SDS011;54086;50.126;8.710;2024-01-27T01:09:56;14.60;;;2.70;;
67156;SDS011;54086;50.126;8.710;2024-01-27T01:12:22;7.43;;;2.35;;
67156;SDS011;54086;50.126;8.710;2024-01-27T01:14:48;12.83;;;2.30;;
67156;SDS011;54086;50.126;8.710;2024-01-27T01:17:13;7.07;;;2.33;;
67156;SDS011;54086;50.126;8.710;2024-01-27T01:19:40;9.35;;;1.90;;
67156;SDS011;54086;50.126;8.710;2024-01-27T01:22:06;13.40;;;2.53;;
67156;SDS011;54086;50.126;8.710;2024-01-27T01:24:32;9.33;;;2.00;;
67156;SDS011;54086;50.126;8.710;2024-01-27T01:26:58;14.27;;;2.80;;
67156;SDS011;54086;50.126;8.710;2024-01-27T01:29:24;11.25;;;2.58;;
67156;SDS011;54086;50.126;8.710;2024-01-27T01:31:49;9.53;;;2.63;;
67156;SDS011;54086;50.126;8.710;2024-01-27T01:34:15;12.53;;;2.33;;
67156;SDS011;54086;50.126;8.710;2024-01-27T01:36:40;10.73;;;2.23;;
67156;SDS011;54086;50.126;8.710;2024-01-27T01:39:06;10.60;;;1.80;;
67156;SDS011;54086;50.126;8.710;2024-01-27T01:41:31;10.77;;;2.47;;
67156;SDS011;54086;50.126;8.710;2024-01-27T01:43:57;10.70;;;2.10;;
67156;SDS011;54086;50.126;8.710;2024-01-27T01:46:22;9.48;;;2.15;;
67156;SDS011;54086;50.126;8.710;2024-01-27T01:48:51;8.97;;;1.80;;
67156;SDS011;54086;50.126;8.710;2024-01-27T01:51:16;8.95;;;1.70;;
67156;SDS011;54086;50.126;8.710;2024-01-27T01:53:42;9.70;;;1.60;;
67156;SDS011;54086;50.126;8.710;2024-01-27T01:56:10;7.90;;;2.00;;
67156;SDS011;54086;50.126;8.710;2024-01-27T01:58:35;12.90;;;2.30;;
67156;SDS011;54086;50.126;8.710;2024-01-27T02:01:01;9.97;;;2.00;;
67156;SDS011;54086;50.126;8.710;2024-01-27T02:03:26;9.63;;;1.93;;
67156;SDS011;54086;50.126;8.710;2024-01-27T02:05:52;8.77;;;1.70;;
67156;SDS011;54086;50.126;8.710;2024-01-27T02:08:17;8.43;;;1.70;;
67156;SDS011;54086;50.126;8.710;2024-01-27T02:10:43;13.57;;;2.08;;
67156;SDS011;54086;50.126;8.710;2024-01-27T02:13:17;9.53;;;1.90;;
67156;SDS011;54086;50.126;8.710;2024-01-27T02:15:44;11.70;;;2.10;;
67156;SDS011;54086;50.126;8.710;2024-01-27T02:18:09;11.03;;;1.93;;
67156;SDS011;54086;50.126;8.710;2024-01-27T02:20:35;12.68;;;2.13;;
67156;SDS011;54086;50.126;8.710;2024-01-27T02:23:00;9.27;;;2.37;;
67156;SDS011;54086;50.126;8.710;2024-01-27T02:25:29;8.93;;;1.85;;
67156;SDS011;54086;50.126;8.710;2024-01-27T02:27:55;14.63;;;2.00;;
67156;SDS011;54086;50.126;8.710;2024-01-27T02:30:20;10.13;;;2.27;;
67156;SDS011;54086;50.126;8.710;2024-01-27T02:32:46;13.20;;;2.20;;
67156;SDS011;54086;50.126;8.710;2024-01-27T02:35:11;11.93;;;2.20;;
67156;SDS011;54086;50.126;8.710;2024-01-27T02:37:37;7.57;;;2.00;;
67156;SDS011;54086;50.126;8.710;2024-01-27T02:40:03;14.17;;;2.57;;
67156;SDS011;54086;50.126;8.710;2024-01-27T02:42:28;8.77;;;1.75;;
67156;SDS011;54086;50.126;8.710;2024-01-27T02:44:54;9.87;;;1.77;;
67156;SDS011;54086;50.126;8.710;2024-01-27T02:47:19;10.18;;;2.17;;
67156;SDS011;54086;50.126;8.710;2024-01-27T02:49:45;10.47;;;2.10;;
67156;SDS011;54086;50.126;8.710;2024-01-27T02:52:10;10.27;;;2.00;;
67156;SDS011;54086;50.126;8.710;2024-01-27T02:54:35;11.77;;;2.27;;
67156;SDS011;54086;50.126;8.710;2024-01-27T02:57:01;10.63;;;2.10;;
67156;SDS011;54086;50.126;8.710;2024-01-27T02:59:26;10.27;;;2.33;;
67156;SDS011;54086;50.126;8.710;2024-01-27T03:01:52;11.23;;;1.90;;
67156;SDS011;54086;50.126;8.710;2024-01-27T03:04:17;9.20;;;2.07;;
67156;SDS011;54086;50.126;8.710;2024-01-27T03:06:42;9.47;;;2.13;;
67156;SDS011;54086;50.126;8.710;2024-01-27T03:09:08;10.87;;;2.60;;
67156;SDS011;54086;50.126;8.710;2024-01-27T03:11:35;8.50;;;2.35;;
67156;SDS011;54086;50.126;8.710;2024-01-27T03:14:00;12.07;;;2.43;;
67156;SDS011;54086;50.126;8.710;2024-01-27T03:16:26;10.83;;;2.53;;
67156;SDS011;54086;50.126;8.710;2024-01-27T03:18:51;10.13;;;1.90;;
67156;SDS011;54086;50.126;8.710;2024-01-27T03:21:17;11.10;;;2.13;;
67156;SDS011;54086;50.126;8.710;2024-01-27T03:23:42;13.23;;;2.30;;
67156;SDS011;54086;50.126;8.710;2024-01-27T03:26:07;10.47;;;2.30;;
67156;SDS011;54086;50.126;8.710;2024-01-27T03:28:33;10.68;;;2.05;;
67156;SDS011;54086;50.126;8.710;2024-01-27T03:30:58;11.27;;;2.10;;
67156;SDS011;54086;50.126;8.710;2024-01-27T03:33:24;11.93;;;2.47;;
67156;SDS011;54086;50.126;8.710;2024-01-27T03:35:50;8.43;;;2.10;;
67156;SDS011;54086;50.126;8.710;2024-01-27T03:38:16;10.60;;;2.33;;
67156;SDS011;54086;50.126;8.710;2024-01-27T03:40:41;15.33;;;2.60;;
67156;SDS011;54086;50.126;8.710;2024-01-27T03:43:06;9.37;;;2.37;;
67156;SDS011;54086;50.126;8.710;2024-01-27T03:45:32;9.13;;;2.10;;
67156;SDS011;54086;50.126;8.710;2024-01-27T03:47:57;9.33;;;2.27;;
67156;SDS011;54086;50.126;8.710;2024-01-27T03:50:22;7.97;;;2.20;;
67156;SDS011;54086;50.126;8.710;2024-01-27T03:52:48;7.47;;;1.98;;
67156;SDS011;54086;50.126;8.710;2024-01-27T03:55:13;14.77;;;2.47;;
67156;SDS011;54086;50.126;8.710;2024-01-27T03:57:39;9.97;;;2.37;;
67156;SDS011;54086;50.126;8.710;2024-01-27T04:00:04;9.37;;;2.47;;
67156;SDS011;54086;50.126;8.710;2024-01-27T04:02:30;10.88;;;2.28;;
67156;SDS011;54086;50.126;8.710;2024-01-27T04:04:55;9.80;;;2.47;;
67156;SDS011;54086;50.126;8.710;2024-01-27T04:07:21;9.20;;;2.27;;
67156;SDS011;54086;50.126;8.710;2024-01-27T04:09:46;11.02;;;2.45;;
67156;SDS011;54086;50.126;8.710;2024-01-27T04:12:12;9.13;;;2.30;;
67156;SDS011;54086;50.126;8.710;2024-01-27T04:14:37;8.23;;;2.33;;
67156;SDS011;54086;50.126;8.710;2024-01-27T04:17:02;9.90;;;2.43;;
67156;SDS011;54086;50.126;8.710;2024-01-27T04:19:28;13.53;;;2.20;;
67156;SDS011;54086;50.126;8.710;2024-01-27T04:21:53;10.38;;;2.30;;
67156;SDS011;54086;50.126;8.710;2024-01-27T04:24:18;11.67;;;2.57;;
67156;SDS011;54086;50.126;8.710;2024-01-27T04:26:44;12.70;;;2.33;;
67156;SDS011;54086;50.126;8.710;2024-01-27T04:29:09;10.23;;;2.57;;
67156;SDS011;54086;50.126;8.710;2024-01-27T04:31:39;8.23;;;2.05;;
67156;SDS011;54086;50.126;8.710;2024-01-27T04:34:06;10.80;;;2.22;;
67156;SDS011;54086;50.126;8.710;2024-01-27T04:36:31;11.63;;;2.80;;
67156;SDS011;54086;50.126;8.710;2024-01-27T04:38:57;8.93;;;2.30;;
67156;SDS011;54086;50.126;8.710;2024-01-27T04:41:22;9.27;;;2.45;;
67156;SDS011;54086;50.126;8.710;2024-01-27T04:43:48;9.23;;;2.30;;
67156;SDS011;54086;50.126;8.710;2024-01-27T04:46:13;15.50;;;3.00;;
67156;SDS011;54086;50.126;8.710;2024-01-27T04:48:38;11.83;;;2.60;;
67156;SDS011;54086;50.126;8.710;2024-01-27T04:51:04;11.57;;;2.40;;
67156;SDS011;54086;50.126;8.710;2024-01-27T04:53:29;10.13;;;2.63;;
67156;SDS011;54086;50.126;8.710;2024-01-27T04:55:55;9.83;;;2.53;;
67156;SDS011;54086;50.126;8.710;2024-01-27T04:58:20;10.43;;;2.67;;
67156;SDS011;54086;50.126;8.710;2024-01-27T05:00:46;9.43;;;2.97;;
67156;SDS011;54086;50.126;8.710;2024-01-27T05:03:11;11.23;;;2.73;;
67156;SDS011;54086;50.126;8.710;2024-01-27T05:05:41;12.25;;;2.30;;
67156;SDS011;54086;50.126;8.710;2024-01-27T05:08:07;7.57;;;2.03;;
67156;SDS011;54086;50.126;8.710;2024-01-27T05:10:33;12.85;;;2.97;;
67156;SDS011;54086;50.126;8.710;2024-01-27T05:12:58;12.13;;;2.77;;
67156;SDS011;54086;50.126;8.710;2024-01-27T05:15:24;11.20;;;2.15;;
67156;SDS011;54086;50.126;8.710;2024-01-27T05:17:50;10.10;;;2.23;;
67156;SDS011;54086;50.126;8.710;2024-01-27T05:20:15;8.97;;;2.50;;
67156;SDS011;54086;50.126;8.710;2024-01-27T05:22:40;8.17;;;2.50;;
67156;SDS011;54086;50.126;8.710;2024-01-27T05:25:06;10.27;;;2.58;;
67156;SDS011;54086;50.126;8.710;2024-01-27T05:27:32;9.05;;;3.03;;
67156;SDS011;54086;50.126;8.710;2024-01-27T05:29:57;9.83;;;2.87;;
67156;SDS011;54086;50.126;8.710;2024-01-27T05:32:23;8.93;;;2.73;;
67156;SDS011;54086;50.126;8.710;2024-01-27T05:34:48;11.60;;;2.60;;
67156;SDS011;54086;50.126;8.710;2024-01-27T05:37:14;8.97;;;2.83;;
67156;SDS011;54086;50.126;8.710;2024-01-27T05:39:39;10.23;;;2.53;;
67156;SDS011;54086;50.126;8.710;2024-01-27T05:42:04;11.02;;;2.97;;
67156;SDS011;54086;50.126;8.710;2024-01-27T05:44:30;12.83;;;3.33;;
67156;SDS011;54086;50.126;8.710;2024-01-27T05:46:55;13.00;;;2.80;;
67156;SDS011;54086;50.126;8.710;2024-01-27T05:49:21;12.30;;;2.90;;
67156;SDS011;54086;50.126;8.710;2024-01-27T05:51:46;12.93;;;2.90;;
67156;SDS011;54086;50.126;8.710;2024-01-27T05:54:13;9.40;;;2.40;;
67156;SDS011;54086;50.126;8.710;2024-01-27T05:56:41;10.57;;;3.05;;
67156;SDS011;54086;50.126;8.710;2024-01-27T05:59:07;10.70;;;2.97;;
67156;SDS011;54086;50.126;8.710;2024-01-27T06:01:32;10.30;;;2.63;;
67156;SDS011;54086;50.126;8.710;2024-01-27T06:03:57;14.70;;;3.70;;
67156;SDS011;54086;50.126;8.710;2024-01-27T06:06:23;13.23;;;2.67;;
67156;SDS011;54086;50.126;8.710;2024-01-27T06:08:49;8.07;;;2.50;;
67156;SDS011;54086;50.126;8.710;2024-01-27T06:11:22;15.50;;;3.00;;
67156;SDS011;54086;50.126;8.710;2024-01-27T06:13:48;32.90;;;9.02;;
67156;SDS011;54086;50.126;8.710;2024-01-27T06:16:14;10.93;;;3.10;;
67156;SDS011;54086;50.126;8.710;2024-01-27T06:18:39;14.93;;;2.77;;
67156;SDS011;54086;50.126;8.710;2024-01-27T06:21:04;11.20;;;2.80;;
67156;SDS011;54086;50.126;8.710;2024-01-27T06:23:30;15.10;;;3.53;;
67156;SDS011;54086;50.126;8.710;2024-01-27T06:25:55;12.07;;;3.00;;
67156;SDS011;54086;50.126;8.710;2024-01-27T06:28:21;12.90;;;3.17;;
67156;SDS011;54086;50.126;8.710;2024-01-27T06:30:46;14.33;;;3.70;;
67156;SDS011;54086;50.126;8.710;2024-01-27T06:33:12;11.67;;;2.83;;
67156;SDS011;54086;50.126;8.710;2024-01-27T06:35:37;12.27;;;2.80;;
67156;SDS011;54086;50.126;8.710;2024-01-27T06:38:02;12.23;;;3.30;;
67156;SDS011;54086;50.126;8.710;2024-01-27T06:40:28;12.55;;;3.15;;
67156;SDS011;54086;50.126;8.710;2024-01-27T06:42:53;10.80;;;3.10;;
67156;SDS011;54086;50.126;8.710;2024-01-27T06:45:19;12.30;;;3.20;;
67156;SDS011;54086;50.126;8.710;2024-01-27T06:47:44;10.90;;;3.20;;
67156;SDS011;54086;50.126;8.710;2024-01-27T06:50:10;11.37;;;3.23;;
67156;SDS011;54086;50.126;8.710;2024-01-27T06:52:35;13.63;;;3.40;;
67156;SDS011;54086;50.126;8.710;2024-01-27T06:55:01;11.27;;;3.17;;
67156;SDS011;54086;50.126;8.710;2024-01-27T06:57:26;10.15;;;3.30;;
67156;SDS011;54086;50.126;8.710;2024-01-27T06:59:51;10.60;;;3.33;;
67156;SDS011;54086;50.126;8.710;2024-01-27T07:02:24;10.98;;;3.30;;
67156;SDS011;54086;50.126;8.710;2024-01-27T07:04:51;9.17;;;3.33;;
67156;SDS011;54086;50.126;8.710;2024-01-27T07:07:16;15.27;;;4.40;;
67156;SDS011;54086;50.126;8.710;2024-01-27T07:09:42;12.63;;;4.67;;
67156;SDS011;54086;50.126;8.710;2024-01-27T07:12:07;10.30;;;3.43;;
67156;SDS011;54086;50.126;8.710;2024-01-27T07:14:34;9.45;;;3.35;;
67156;SDS011;54086;50.126;8.710;2024-01-27T07:17:00;12.32;;;3.72;;
67156;SDS011;54086;50.126;8.710;2024-01-27T07:19:25;12.93;;;3.40;;
67156;SDS011;54086;50.126;8.710;2024-01-27T07:21:51;8.93;;;3.10;;
67156;SDS011;54086;50.126;8.710;2024-01-27T07:24:16;12.55;;;2.95;;
67156;SDS011;54086;50.126;8.710;2024-01-27T07:26:42;11.67;;;3.77;;
67156;SDS011;54086;50.126;8.710;2024-01-27T07:29:07;13.63;;;3.60;;
67156;SDS011;54086;50.126;8.710;2024-01-27T07:31:33;10.13;;;3.60;;
67156;SDS011;54086;50.126;8.710;2024-01-27T07:33:58;12.93;;;3.60;;
67156;SDS011;54086;50.126;8.710;2024-01-27T07:36:24;10.73;;;3.27;;
67156;SDS011;54086;50.126;8.710;2024-01-27T07:38:51;15.60;;;4.85;;
67156;SDS011;54086;50.126;8.710;2024-01-27T07:41:16;12.53;;;3.70;;
67156;SDS011;54086;50.126;8.710;2024-01-27T07:43:42;12.57;;;3.17;;
67156;SDS011;54086;50.126;8.710;2024-01-27T07:46:07;10.93;;;3.50;;
67156;SDS011;54086;50.126;8.710;2024-01-27T07:48:32;11.47;;;3.60;;
67156;SDS011;54086;50.126;8.710;2024-01-27T07:50:58;10.57;;;3.90;;
67156;SDS011;54086;50.126;8.710;2024-01-27T07:53:24;14.02;;;3.47;;
67156;SDS011;54086;50.126;8.710;2024-01-27T07:55:49;8.87;;;3.40;;
67156;SDS011;54086;50.126;8.710;2024-01-27T07:58:16;7.88;;;3.00;;
67156;SDS011;54086;50.126;8.710;2024-01-27T08:00:41;10.10;;;3.13;;
67156;SDS011;54086;50.126;8.710;2024-01-27T08:03:06;10.83;;;3.10;;
67156;SDS011;54086;50.126;8.710;2024-01-27T08:05:32;12.30;;;3.30;;
67156;SDS011;54086;50.126;8.710;2024-01-27T08:07:57;13.17;;;2.97;;
67156;SDS011;54086;50.126;8.710;2024-01-27T08:10:23;12.80;;;2.97;;
67156;SDS011;54086;50.126;8.710;2024-01-27T08:12:48;10.73;;;2.97;;
67156;SDS011;54086;50.126;8.710;2024-01-27T08:15:13;9.07;;;2.50;;
67156;SDS011;54086;50.126;8.710;2024-01-27T08:17:39;8.00;;;2.80;;
67156;SDS011;54086;50.126;8.710;2024-01-27T08:20:04;9.55;;;2.92;;
67156;SDS011;54086;50.126;8.710;2024-01-27T08:22:30;13.13;;;3.40;;
67156;SDS011;54086;50.126;8.710;2024-01-27T08:24:56;10.55;;;3.50;;
67156;SDS011;54086;50.126;8.710;2024-01-27T08:27:21;7.47;;;2.90;;
67156;SDS011;54086;50.126;8.710;2024-01-27T08:29:47;12.67;;;3.20;;
67156;SDS011;54086;50.126;8.710;2024-01-27T08:32:12;10.83;;;2.90;;
67156;SDS011;54086;50.126;8.710;2024-01-27T08:34:38;11.55;;;3.17;;
67156;SDS011;54086;50.126;8.710;2024-01-27T08:37:13;8.83;;;2.87;;
67156;SDS011;54086;50.126;8.710;2024-01-27T08:39:40;10.65;;;3.28;;
67156;SDS011;54086;50.126;8.710;2024-01-27T08:42:05;11.77;;;2.97;;
67156;SDS011;54086;50.126;8.710;2024-01-27T08:44:31;8.43;;;2.93;;
67156;SDS011;54086;50.126;8.710;2024-01-27T08:46:56;10.05;;;2.90;;
67156;SDS011;54086;50.126;8.710;2024-01-27T08:49:21;9.70;;;2.83;;
67156;SDS011;54086;50.126;8.710;2024-01-27T08:51:47;10.13;;;3.27;;
67156;SDS011;54086;50.126;8.710;2024-01-27T08:54:12;10.20;;;2.93;;
67156;SDS011;54086;50.126;8.710;2024-01-27T08:56:41;10.85;;;3.00;;
67156;SDS011;54086;50.126;8.710;2024-01-27T08:59:06;10.73;;;3.10;;
67156;SDS011;54086;50.126;8.710;2024-01-27T09:01:32;12.23;;;2.83;;
67156;SDS011;54086;50.126;8.710;2024-01-27T09:03:57;11.00;;;3.33;;
67156;SDS011;54086;50.126;8.710;2024-01-27T09:06:23;10.00;;;2.90;;
67156;SDS011;54086;50.126;8.710;2024-01-27T09:08:48;11.93;;;3.73;;
67156;SDS011;54086;50.126;8.710;2024-01-27T09:11:13;13.07;;;3.17;;
67156;SDS011;54086;50.126;8.710;2024-01-27T09:13:39;9.83;;;3.13;;
67156;SDS011;54086;50.126;8.710;2024-01-27T09:16:05;11.87;;;2.80;;
67156;SDS011;54086;50.126;8.710;2024-01-27T09:18:31;11.38;;;2.85;;
67156;SDS011;54086;50.126;8.710;2024-01-27T09:20:56;10.73;;;2.97;;
67156;SDS011;54086;50.126;8.710;2024-01-27T09:23:22;11.18;;;3.33;;
67156;SDS011;54086;50.126;8.710;2024-01-27T09:25:48;10.95;;;4.28;;
67156;SDS011;54086;50.126;8.710;2024-01-27T09:28:13;16.43;;;3.53;;
67156;SDS011;54086;50.126;8.710;2024-01-27T09:30:41;11.70;;;2.97;;
67156;SDS011;54086;50.126;8.710;2024-01-27T09:33:06;9.93;;;2.77;;
67156;SDS011;54086;50.126;8.710;2024-01-27T09:35:32;9.95;;;2.70;;
67156;SDS011;54086;50.126;8.710;2024-01-27T09:37:57;10.07;;;3.40;;
67156;SDS011;54086;50.126;8.710;2024-01-27T09:40:23;10.03;;;2.90;;
67156;SDS011;54086;50.126;8.710;2024-01-27T09:42:51;10.05;;;3.25;;
67156;SDS011;54086;50.126;8.710;2024-01-27T09:45:20;13.93;;;4.00;;
67156;SDS011;54086;50.126;8.710;2024-01-27T09:47:47;13.43;;;3.80;;
67156;SDS011;54086;50.126;8.710;2024-01-27T09:50:14;10.90;;;3.85;;
67156;SDS011;54086;50.126;8.710;2024-01-27T09:52:41;12.45;;;4.32;;
67156;SDS011;54086;50.126;8.710;2024-01-27T09:55:07;13.77;;;3.43;;
67156;SDS011;54086;50.126;8.710;2024-01-27T09:57:33;11.05;;;3.90;;
67156;SDS011;54086;50.126;8.710;2024-01-27T10:00:01;13.38;;;4.00;;
67156;SDS011;54086;50.126;8.710;2024-01-27T10:02:29;12.27;;;4.13;;
67156;SDS011;54086;50.126;8.710;2024-01-27T10:04:55;13.05;;;3.10;;
67156;SDS011;54086;50.126;8.710;2024-01-27T10:07:20;15.73;;;3.38;;
67156;SDS011;54086;50.126;8.710;2024-01-27T10:09:50;13.80;;;3.63;;
67156;SDS011;54086;50.126;8.710;2024-01-27T10:12:16;10.00;;;3.00;;
67156;SDS011;54086;50.126;8.710;2024-01-27T10:14:43;13.48;;;3.67;;
67156;SDS011;54086;50.126;8.710;2024-01-27T10:17:20;10.65;;;3.13;;
67156;SDS011;54086;50.126;8.710;2024-01-27T10:20:03;15.70;;;3.97;;
67156;SDS011;54086;50.126;8.710;2024-01-27T10:22:36;12.93;;;3.30;;
67156;SDS011;54086;50.126;8.710;2024-01-27T10:25:08;14.95;;;3.33;;
67156;SDS011;54086;50.126;8.710;2024-01-27T10:27:37;12.07;;;3.20;;
67156;SDS011;54086;50.126;8.710;2024-01-27T10:30:03;13.85;;;3.45;;
67156;SDS011;54086;50.126;8.710;2024-01-27T10:32:29;13.90;;;3.63;;
67156;SDS011;54086;50.126;8.710;2024-01-27T10:35:04;17.40;;;4.40;;
67156;SDS011;54086;50.126;8.710;2024-01-27T10:37:30;9.97;;;3.60;;
67156;SDS011;54086;50.126;8.710;2024-01-27T10:40:14;12.65;;;4.03;;
67156;SDS011;54086;50.126;8.710;2024-01-27T10:42:41;15.60;;;4.17;;
67156;SDS011;54086;50.126;8.710;2024-01-27T10:45:09;13.25;;;3.58;;
67156;SDS011;54086;50.126;8.710;2024-01-27T10:47:36;11.00;;;3.58;;
67156;SDS011;54086;50.126;8.710;2024-01-27T10:50:05;13.80;;;4.07;;
67156;SDS011;54086;50.126;8.710;2024-01-27T10:52:34;11.05;;;3.63;;
67156;SDS011;54086;50.126;8.710;2024-01-27T10:55:04;14.13;;;4.00;;
67156;SDS011;54086;50.126;8.710;2024-01-27T10:57:35;15.75;;;4.03;;
67156;SDS011;54086;50.126;8.710;2024-01-27T11:00:05;11.85;;;4.13;;
67156;SDS011;54086;50.126;8.710;2024-01-27T11:02:32;10.77;;;3.78;;
67156;SDS011;54086;50.126;8.710;2024-01-27T11:04:59;12.60;;;3.42;;
67156;SDS011;54086;50.126;8.710;2024-01-27T11:07:27;13.93;;;3.87;;
67156;SDS011;54086;50.126;8.710;2024-01-27T11:09:53;12.15;;;3.53;;
67156;SDS011;54086;50.126;8.710;2024-01-27T11:12:19;18.00;;;4.37;;
67156;SDS011;54086;50.126;8.710;2024-01-27T11:14:47;12.70;;;3.90;;
67156;SDS011;54086;50.126;8.710;2024-01-27T11:17:13;10.98;;;4.03;;
67156;SDS011;54086;50.126;8.710;2024-01-27T11:19:40;10.00;;;3.40;;
67156;SDS011;54086;50.126;8.710;2024-01-27T11:22:06;12.57;;;3.43;;
67156;SDS011;54086;50.126;8.710;2024-01-27T11:24:31;14.23;;;3.63;;
67156;SDS011;54086;50.126;8.710;2024-01-27T11:27:03;10.83;;;3.07;;
67156;SDS011;54086;50.126;8.710;2024-01-27T11:29:30;11.85;;;3.80;;
67156;SDS011;54086;50.126;8.710;2024-01-27T11:31:59;12.35;;;3.65;;
67156;SDS011;54086;50.126;8.710;2024-01-27T11:34:25;13.05;;;3.65;;
67156;SDS011;54086;50.126;8.710;2024-01-27T11:36:50;13.60;;;3.27;;
67156;SDS011;54086;50.126;8.710;2024-01-27T11:39:49;12.60;;;3.50;;
67156;SDS011;54086;50.126;8.710;2024-01-27T11:42:08;12.60;;;3.00;;
67156;SDS011;54086;50.126;8.710;2024-01-27T11:44:38;12.55;;;3.35;;
67156;SDS011;54086;50.126;8.710;2024-01-27T11:47:05;10.48;;;3.20;;
67156;SDS011;54086;50.126;8.710;2024-01-27T11:49:38;11.07;;;2.73;;
67156;SDS011;54086;50.126;8.710;2024-01-27T11:52:05;14.57;;;4.10;;
67156;SDS011;54086;50.126;8.710;2024-01-27T11:54:31;12.70;;;3.30;;
67156;SDS011;54086;50.126;8.710;2024-01-27T11:56:57;10.77;;;3.10;;
67156;SDS011;54086;50.126;8.710;2024-01-27T11:59:23;16.05;;;4.22;;
67156;SDS011;54086;50.126;8.710;2024-01-27T12:01:48;17.87;;;3.37;;
67156;SDS011;54086;50.126;8.710;2024-01-27T12:04:14;11.80;;;3.03;;
67156;SDS011;54086;50.126;8.710;2024-01-27T12:06:41;11.30;;;3.50;;
67156;SDS011;54086;50.126;8.710;2024-01-27T12:09:08;15.27;;;3.60;;
67156;SDS011;54086;50.126;8.710;2024-01-27T12:11:38;10.63;;;2.80;;
67156;SDS011;54086;50.126;8.710;2024-01-27T12:14:07;8.55;;;3.13;;
67156;SDS011;54086;50.126;8.710;2024-01-27T12:16:32;12.50;;;3.33;;
67156;SDS011;54086;50.126;8.710;2024-01-27T12:18:58;13.88;;;3.03;;
67156;SDS011;54086;50.126;8.710;2024-01-27T12:21:24;15.82;;;3.35;;
67156;SDS011;54086;50.126;8.710;2024-01-27T12:23:53;13.27;;;3.10;;
67156;SDS011;54086;50.126;8.710;2024-01-27T12:26:20;11.95;;;2.80;;
67156;SDS011;54086;50.126;8.710;2024-01-27T12:28:47;15.10;;;3.03;;
67156;SDS011;54086;50.126;8.710;2024-01-27T12:31:15;8.52;;;2.60;;
67156;SDS011;54086;50.126;8.710;2024-01-27T12:33:47;15.15;;;2.90;;
67156;SDS011;54086;50.126;8.710;2024-01-27T12:36:14;11.32;;;2.38;;
67156;SDS011;54086;50.126;8.710;2024-01-27T12:38:39;10.23;;;2.43;;
67156;SDS011;54086;50.126;8.710;2024-01-27T12:41:04;9.83;;;2.60;;
67156;SDS011;54086;50.126;8.710;2024-01-27T12:43:30;9.23;;;2.23;;
67156;SDS011;54086;50.126;8.710;2024-01-27T12:45:55;11.53;;;2.40;;
67156;SDS011;54086;50.126;8.710;2024-01-27T12:48:21;11.27;;;2.40;;
67156;SDS011;54086;50.126;8.710;2024-01-27T12:50:46;9.63;;;2.40;;
67156;SDS011;54086;50.126;8.710;2024-01-27T12:53:11;15.77;;;2.87;;
67156;SDS011;54086;50.126;8.710;2024-01-27T12:55:37;10.32;;;2.65;;
67156;SDS011;54086;50.126;8.710;2024-01-27T12:58:03;9.27;;;2.23;;
67156;SDS011;54086;50.126;8.710;2024-01-27T13:00:28;12.27;;;3.55;;
67156;SDS011;54086;50.126;8.710;2024-01-27T13:02:53;13.13;;;2.47;;
67156;SDS011;54086;50.126;8.710;2024-01-27T13:05:19;14.30;;;3.57;;
67156;SDS011;54086;50.126;8.710;2024-01-27T13:07:45;19.23;;;2.80;;
67156;SDS011;54086;50.126;8.710;2024-01-27T13:10:11;11.43;;;2.67;;
67156;SDS011;54086;50.126;8.710;2024-01-27T13:12:36;9.77;;;2.40;;
67156;SDS011;54086;50.126;8.710;2024-01-27T13:15:02;13.25;;;2.65;;
67156;SDS011;54086;50.126;8.710;2024-01-27T13:17:27;9.23;;;2.60;;
67156;SDS011;54086;50.126;8.710;2024-01-27T13:19:53;14.63;;;2.33;;
67156;SDS011;54086;50.126;8.710;2024-01-27T13:22:19;9.53;;;1.87;;
67156;SDS011;54086;50.126;8.710;2024-01-27T13:24:49;10.25;;;1.98;;
67156;SDS011;54086;50.126;8.710;2024-01-27T13:27:15;8.97;;;1.73;;
67156;SDS011;54086;50.126;8.710;2024-01-27T13:29:40;10.83;;;1.80;;
67156;SDS011;54086;50.126;8.710;2024-01-27T13:32:06;13.73;;;2.58;;
67156;SDS011;54086;50.126;8.710;2024-01-27T13:34:31;10.80;;;1.87;;
67156;SDS011;54086;50.126;8.710;2024-01-27T13:36:58;10.63;;;2.20;;
67156;SDS011;54086;50.126;8.710;2024-01-27T13:39:25;11.30;;;2.58;;
67156;SDS011;54086;50.126;8.710;2024-01-27T13:41:50;13.40;;;2.37;;
67156;SDS011;54086;50.126;8.710;2024-01-27T13:44:15;8.20;;;1.80;;
67156;SDS011;54086;50.126;8.710;2024-01-27T13:46:41;8.50;;;1.90;;
67156;SDS011;54086;50.126;8.710;2024-01-27T13:49:07;10.02;;;2.08;;
67156;SDS011;54086;50.126;8.710;2024-01-27T13:51:32;9.37;;;1.67;;
67156;SDS011;54086;50.126;8.710;2024-01-27T13:53:57;10.10;;;2.20;;
67156;SDS011;54086;50.126;8.710;2024-01-27T13:56:23;8.00;;;1.87;;
67156;SDS011;54086;50.126;8.710;2024-01-27T13:58:48;12.47;;;3.13;;
67156;SDS011;54086;50.126;8.710;2024-01-27T14:01:14;10.20;;;2.30;;
67156;SDS011;54086;50.126;8.710;2024-01-27T14:03:39;10.83;;;2.33;;
67156;SDS011;54086;50.126;8.710;2024-01-27T14:06:05;11.53;;;2.30;;
67156;SDS011;54086;50.126;8.710;2024-01-27T14:08:30;8.85;;;2.42;;
67156;SDS011;54086;50.126;8.710;2024-01-27T14:10:56;14.97;;;3.23;;
67156;SDS011;54086;50.126;8.710;2024-01-27T14:13:21;14.13;;;2.65;;
67156;SDS011;54086;50.126;8.710;2024-01-27T14:15:47;10.73;;;2.80;;
67156;SDS011;54086;50.126;8.710;2024-01-27T14:18:12;13.50;;;3.17;;
67156;SDS011;54086;50.126;8.710;2024-01-27T14:20:45;12.85;;;3.10;;
67156;SDS011;54086;50.126;8.710;2024-01-27T14:23:11;9.60;;;2.13;;
67156;SDS011;54086;50.126;8.710;2024-01-27T14:25:36;8.67;;;2.90;;
67156;SDS011;54086;50.126;8.710;2024-01-27T14:28:02;11.82;;;2.25;;
67156;SDS011;54086;50.126;8.710;2024-01-27T14:30:32;12.83;;;2.13;;
67156;SDS011;54086;50.126;8.710;2024-01-27T14:32:57;9.95;;;1.88;;